Time,TemperatureF,DewpointF,PressureIn,WindDirection,WindDirectionDegrees,WindSpeedMPH,WindSpeedGustMPH,Humidity,HourlyPrecipIn,Conditions,Clouds,dailyrainin,SoftwareType,DateUTC
2013-01-20 00:00:00,45.9,22.3,30.24,WSW,248,3.4,3.4,39,0.00,,CLR,0.00,VWS V14.01,2013-01-20 07:00:00,
2013-01-20 00:06:00,46.9,23.3,30.24,WNW,292,0.0,2.7,39,0.00,,CLR,0.00,VWS V14.01,2013-01-20 07:06:00,
2013-01-20 00:08:00,46.6,22.4,30.24,SSW,202,1.6,1.6,38,0.00,,CLR,0.00,VWS V14.01,2013-01-20 07:08:00,
2013-01-20 00:12:00,46.0,22.5,30.21,SSW,202,1.6,1.6,39,0.00,,CLR,0.00,VWS V14.01,2013-01-20 07:12:00,
2013-01-20 00:14:00,46.2,22.6,30.21,SSW,202,3.4,3.4,39,0.00,,CLR,0.00,VWS V14.01,2013-01-20 07:14:00,
2013-01-20 00:16:00,46.8,22.5,30.21,SSW,202,2.5,3.4,38,0.00,,CLR,0.00,VWS V14.01,2013-01-20 07:16:00,
2013-01-20 00:18:00,46.8,22.5,30.21,SSW,202,2.9,3.4,38,0.00,,CLR,0.00,VWS V14.01,2013-01-20 07:18:00,
2013-01-20 00:22:00,47.3,23.0,30.21,South,180,3.8,4.7,38,0.00,,CLR,0.00,VWS V14.01,2013-01-20 07:22:00,
2013-01-20 00:24:00,48.0,23.6,30.21,SSW,202,4.9,4.9,38,0.00,,CLR,0.00,VWS V14.01,2013-01-20 07:24:00,
2013-01-20 00:28:00,48.4,24.0,30.21,SSW,202,2.9,2.9,38,0.00,,CLR,0.00,VWS V14.01,2013-01-20 07:28:00,
2013-01-20 00:31:00,48.6,24.1,30.21,SSW,202,3.1,3.1,38,0.00,,CLR,0.00,VWS V14.01,2013-01-20 07:31:00,
2013-01-20 00:32:00,48.6,24.1,30.21,South,180,4.5,4.5,38,0.00,,CLR,0.00,VWS V14.01,2013-01-20 07:32:00,
2013-01-20 00:36:00,48.9,23.8,30.21,SSW,202,2.9,2.9,37,0.00,,CLR,0.00,VWS V14.01,2013-01-20 07:36:00,
2013-01-20 00:38:00,48.9,23.8,30.21,South,180,3.4,3.4,37,0.00,,CLR,0.00,VWS V14.01,2013-01-20 07:38:00,
2013-01-20 00:40:00,48.9,23.8,30.18,South,180,3.6,3.6,37,0.00,,CLR,0.00,VWS V14.01,2013-01-20 07:40:00,
2013-01-20 00:42:00,48.9,23.8,30.18,SSW,202,2.2,3.6,37,0.00,,CLR,0.00,VWS V14.01,2013-01-20 07:42:00,
2013-01-20 00:44:00,49.1,24.0,30.18,SSW,202,2.2,2.2,37,0.00,,CLR,0.00,VWS V14.01,2013-01-20 07:44:00,
2013-01-20 00:48:00,48.9,23.8,30.18,South,180,3.1,4.3,37,0.00,,CLR,0.00,VWS V14.01,2013-01-20 07:48:00,
2013-01-20 00:50:00,49.1,24.0,30.18,SSE,158,3.6,3.6,37,0.00,,CLR,0.00,VWS V14.01,2013-01-20 07:50:00,
2013-01-20 00:55:00,48.9,23.8,30.18,SSE,158,3.4,3.4,37,0.00,,CLR,0.00,VWS V14.01,2013-01-20 07:55:00,
2013-01-20 00:56:00,48.9,23.8,30.21,South,180,3.6,3.6,37,0.00,,CLR,0.00,VWS V14.01,2013-01-20 07:56:00,
2013-01-20 01:01:00,48.9,23.8,30.21,SSW,202,3.8,3.8,37,0.00,,CLR,0.00,VWS V14.01,2013-01-20 08:01:00,
2013-01-20 01:02:00,48.7,23.6,30.21,SSE,158,3.4,3.8,37,0.00,,CLR,0.00,VWS V14.01,2013-01-20 08:02:00,
2013-01-20 01:06:00,48.7,23.6,30.21,South,180,4.5,4.5,37,0.00,,CLR,0.00,VWS V14.01,2013-01-20 08:06:00,
2013-01-20 01:09:00,48.7,23.6,30.21,South,180,4.5,4.5,37,0.00,,CLR,0.00,VWS V14.01,2013-01-20 08:09:00,
2013-01-20 01:13:00,48.7,23.6,30.21,South,180,2.9,2.9,37,0.00,,CLR,0.00,VWS V14.01,2013-01-20 08:13:00,
2013-01-20 01:14:00,48.7,23.6,30.21,SSW,202,2.5,2.9,37,0.00,,CLR,0.00,VWS V14.01,2013-01-20 08:14:00,
2013-01-20 01:18:00,48.7,23.0,30.21,South,180,3.6,3.6,36,0.00,,CLR,0.00,VWS V14.01,2013-01-20 08:18:00,
2013-01-20 01:22:00,48.7,23.0,30.21,SSW,202,3.6,3.6,36,0.00,,CLR,0.00,VWS V14.01,2013-01-20 08:22:00,
2013-01-20 01:24:00,48.7,23.0,30.21,SSW,202,3.6,3.6,36,0.00,,CLR,0.00,VWS V14.01,2013-01-20 08:24:00,
2013-01-20 01:28:00,48.7,23.0,30.24,SSW,202,2.9,3.6,36,0.00,,CLR,0.00,VWS V14.01,2013-01-20 08:28:00,
2013-01-20 01:30:00,48.7,23.0,30.24,SSW,202,2.9,2.9,36,0.00,,CLR,0.00,VWS V14.01,2013-01-20 08:30:00,
2013-01-20 01:32:00,48.7,22.3,30.24,SSW,202,2.9,3.6,35,0.00,,CLR,0.00,VWS V14.01,2013-01-20 08:32:00,
2013-01-20 01:38:00,48.6,22.2,30.24,South,180,4.9,4.9,35,0.00,,CLR,0.00,VWS V14.01,2013-01-20 08:38:00,
2013-01-20 01:42:00,48.6,22.2,30.21,SSE,158,4.9,4.9,35,0.00,,CLR,0.00,VWS V14.01,2013-01-20 08:42:00,
2013-01-20 01:44:00,48.7,22.3,30.21,SSE,158,4.9,4.9,35,0.00,,CLR,0.00,VWS V14.01,2013-01-20 08:44:00,
2013-01-20 01:46:00,48.7,22.3,30.21,SSE,158,4.9,4.9,35,0.00,,CLR,0.00,VWS V14.01,2013-01-20 08:46:00,
2013-01-20 01:48:00,48.9,22.5,30.21,South,180,4.0,4.9,35,0.00,,CLR,0.00,VWS V14.01,2013-01-20 08:48:00,
2013-01-20 01:52:00,49.1,22.6,30.21,SSE,158,4.0,4.0,35,0.00,,CLR,0.00,VWS V14.01,2013-01-20 08:52:00,
2013-01-20 01:58:00,49.6,23.1,30.21,South,180,5.8,5.8,35,0.00,,CLR,0.00,VWS V14.01,2013-01-20 08:58:00,
2013-01-20 02:02:00,49.5,23.0,30.21,South,180,4.9,4.9,35,0.00,,CLR,0.00,VWS V14.01,2013-01-20 09:02:00,
2013-01-20 02:04:00,49.6,22.4,30.21,South,180,4.9,4.9,34,0.00,,CLR,0.00,VWS V14.01,2013-01-20 09:04:00,
2013-01-20 02:08:00,49.8,23.3,30.21,South,180,4.9,4.9,35,0.00,,CLR,0.00,VWS V14.01,2013-01-20 09:08:00,
2013-01-20 02:10:00,49.8,23.3,30.21,South,180,4.9,4.9,35,0.00,,CLR,0.00,VWS V14.01,2013-01-20 09:10:00,
2013-01-20 02:14:00,49.8,23.3,30.21,South,180,4.9,4.9,35,0.00,,CLR,0.00,VWS V14.01,2013-01-20 09:14:00,
2013-01-20 02:16:00,49.8,23.3,30.21,South,180,4.9,4.9,35,0.00,,CLR,0.00,VWS V14.01,2013-01-20 09:16:00,
2013-01-20 02:18:00,49.1,22.6,30.21,South,180,4.9,4.9,35,0.00,,CLR,0.00,VWS V14.01,2013-01-20 09:18:00,
2013-01-20 02:20:00,49.1,22.6,30.21,South,180,4.9,4.9,35,0.00,,CLR,0.00,VWS V14.01,2013-01-20 09:20:00,
2013-01-20 02:22:00,48.7,22.3,30.21,South,180,4.9,4.9,35,0.00,,CLR,0.00,VWS V14.01,2013-01-20 09:22:00,
2013-01-20 02:26:00,48.6,22.2,30.21,South,180,4.9,4.9,35,0.00,,CLR,0.00,VWS V14.01,2013-01-20 09:26:00,
2013-01-20 02:28:00,48.6,22.2,30.21,South,180,4.9,4.9,35,0.00,,CLR,0.00,VWS V14.01,2013-01-20 09:28:00,
2013-01-20 02:30:00,48.6,22.2,30.21,SSE,158,3.4,4.9,35,0.00,,CLR,0.00,VWS V14.01,2013-01-20 09:30:00,
2013-01-20 02:32:00,48.6,22.2,30.21,SSE,158,3.4,3.4,35,0.00,,CLR,0.00,VWS V14.01,2013-01-20 09:32:00,
2013-01-20 02:34:00,48.6,22.2,30.21,SSE,158,3.4,3.4,35,0.00,,CLR,0.00,VWS V14.01,2013-01-20 09:34:00,
2013-01-20 02:38:00,48.4,22.7,30.21,South,180,3.6,3.6,36,0.00,,CLR,0.00,VWS V14.01,2013-01-20 09:38:00,
2013-01-20 02:40:00,48.4,22.7,30.21,SSW,202,2.9,3.6,36,0.00,,CLR,0.00,VWS V14.01,2013-01-20 09:40:00,
2013-01-20 02:42:00,48.2,22.5,30.21,SSW,202,2.9,2.9,36,0.00,,CLR,0.00,VWS V14.01,2013-01-20 09:42:00,
2013-01-20 02:44:00,48.2,22.5,30.21,SSW,202,2.9,2.9,36,0.00,,CLR,0.00,VWS V14.01,2013-01-20 09:44:00,
2013-01-20 02:46:00,48.2,22.5,30.21,South,180,2.5,2.9,36,0.00,,CLR,0.00,VWS V14.01,2013-01-20 09:46:00,
2013-01-20 02:48:00,48.2,22.5,30.21,South,180,2.5,2.5,36,0.00,,CLR,0.00,VWS V14.01,2013-01-20 09:48:00,
2013-01-20 02:52:00,47.3,22.4,30.21,South,180,2.5,2.5,37,0.00,,CLR,0.00,VWS V14.01,2013-01-20 09:52:00,
2013-01-20 02:54:00,47.3,22.4,30.21,South,180,2.5,2.5,37,0.00,,CLR,0.00,VWS V14.01,2013-01-20 09:54:00,
2013-01-20 02:58:00,46.9,22.0,30.21,SSW,202,2.7,2.7,37,0.00,,CLR,0.00,VWS V14.01,2013-01-20 09:58:00,
2013-01-20 03:00:00,46.9,22.0,30.21,SSW,202,2.7,2.7,37,0.00,,CLR,0.00,VWS V14.01,2013-01-20 10:00:00,
2013-01-20 03:04:00,46.4,21.6,30.21,SSW,202,2.7,2.7,37,0.00,,CLR,0.00,VWS V14.01,2013-01-20 10:04:00,
2013-01-20 03:08:00,46.0,21.9,30.21,SSW,202,2.7,2.7,38,0.00,,CLR,0.00,VWS V14.01,2013-01-20 10:08:00,
2013-01-20 03:14:00,46.0,21.9,30.21,South,180,3.6,3.6,38,0.00,,CLR,0.00,VWS V14.01,2013-01-20 10:14:00,
2013-01-20 03:18:00,46.0,21.9,30.21,SSW,202,2.9,3.6,38,0.00,,CLR,0.00,VWS V14.01,2013-01-20 10:18:00,
2013-01-20 03:22:00,46.0,21.9,30.21,SSW,202,3.6,3.6,38,0.00,,CLR,0.00,VWS V14.01,2013-01-20 10:22:00,
2013-01-20 03:24:00,46.0,21.9,30.21,SSW,202,2.5,3.6,38,0.00,,CLR,0.00,VWS V14.01,2013-01-20 10:24:00,
2013-01-20 03:27:00,45.7,21.5,30.21,SSW,202,4.0,4.0,38,0.00,,CLR,0.00,VWS V14.01,2013-01-20 10:27:00,
2013-01-20 03:28:00,45.5,21.4,30.21,SSW,202,2.7,4.0,38,0.00,,CLR,0.00,VWS V14.01,2013-01-20 10:28:00,
2013-01-20 03:34:00,45.5,21.4,30.21,SSW,202,2.7,3.1,38,0.00,,CLR,0.00,VWS V14.01,2013-01-20 10:34:00,
2013-01-20 03:36:00,45.5,21.4,30.21,South,180,2.9,2.9,38,0.00,,CLR,0.00,VWS V14.01,2013-01-20 10:36:00,
2013-01-20 03:39:00,45.5,21.4,30.21,SSW,202,2.7,2.9,38,0.00,,CLR,0.00,VWS V14.01,2013-01-20 10:39:00,
2013-01-20 03:44:00,45.0,21.5,30.21,SSW,202,3.4,3.8,39,0.00,,CLR,0.00,VWS V14.01,2013-01-20 10:44:00,
2013-01-20 03:46:00,45.0,21.5,30.21,South,180,2.5,3.4,39,0.00,,CLR,0.00,VWS V14.01,2013-01-20 10:46:00,
2013-01-20 03:48:00,45.1,21.1,30.21,South,180,2.5,2.5,38,0.00,,CLR,0.00,VWS V14.01,2013-01-20 10:48:00,
2013-01-20 03:52:00,45.1,21.1,30.21,South,180,2.5,2.5,38,0.00,,CLR,0.00,VWS V14.01,2013-01-20 10:52:00,
2013-01-20 03:54:00,45.1,21.1,30.21,South,180,2.5,2.5,38,0.00,,CLR,0.00,VWS V14.01,2013-01-20 10:54:00,
2013-01-20 04:00:00,46.6,21.7,30.18,South,180,6.3,6.3,37,0.00,,CLR,0.00,VWS V14.01,2013-01-20 11:00:00,
2013-01-20 04:02:00,46.6,21.7,30.18,South,180,6.3,6.3,37,0.00,,CLR,0.00,VWS V14.01,2013-01-20 11:02:00,
2013-01-20 04:06:00,47.1,22.2,30.18,South,180,6.3,6.3,37,0.00,,CLR,0.00,VWS V14.01,2013-01-20 11:06:00,
2013-01-20 04:08:00,47.3,22.4,30.18,South,180,5.4,6.3,37,0.00,,CLR,0.00,VWS V14.01,2013-01-20 11:08:00,
2013-01-20 04:10:00,47.3,22.4,30.18,South,180,5.4,5.4,37,0.00,,CLR,0.00,VWS V14.01,2013-01-20 11:10:00,
2013-01-20 04:14:00,47.8,22.9,30.18,SE,135,4.0,4.0,37,0.00,,CLR,0.00,VWS V14.01,2013-01-20 11:14:00,
2013-01-20 04:16:00,47.8,22.9,30.18,SE,135,4.0,4.0,37,0.00,,CLR,0.00,VWS V14.01,2013-01-20 11:16:00,
2013-01-20 04:20:00,48.0,23.0,30.18,SE,135,4.0,4.0,37,0.00,,CLR,0.00,VWS V14.01,2013-01-20 11:20:00,
2013-01-20 04:22:00,48.0,23.0,30.18,SE,135,4.0,4.0,37,0.00,,CLR,0.00,VWS V14.01,2013-01-20 11:22:00,
2013-01-20 04:26:00,48.0,23.0,30.18,South,180,4.5,4.5,37,0.00,,CLR,0.00,VWS V14.01,2013-01-20 11:26:00,
2013-01-20 04:28:00,48.0,23.0,30.18,South,180,4.5,4.5,37,0.00,,CLR,0.00,VWS V14.01,2013-01-20 11:28:00,
2013-01-20 04:32:00,48.0,23.0,30.18,South,180,3.8,3.8,37,0.00,,CLR,0.00,VWS V14.01,2013-01-20 11:32:00,
2013-01-20 04:38:00,47.8,22.9,30.18,SSW,202,2.2,2.2,37,0.00,,CLR,0.00,VWS V14.01,2013-01-20 11:38:00,
2013-01-20 04:42:00,47.1,22.2,30.18,SSW,202,2.2,2.2,37,0.00,,CLR,0.00,VWS V14.01,2013-01-20 11:42:00,
2013-01-20 04:44:00,46.9,22.0,30.18,SSW,202,2.9,2.9,37,0.00,,CLR,0.00,VWS V14.01,2013-01-20 11:44:00,
2013-01-20 04:50:00,46.8,21.9,30.18,SSW,202,2.7,2.7,37,0.00,,CLR,0.00,VWS V14.01,2013-01-20 11:50:00,
2013-01-20 04:52:00,46.8,21.9,30.18,SSW,202,2.7,2.7,37,0.00,,CLR,0.00,VWS V14.01,2013-01-20 11:52:00,
2013-01-20 04:56:00,46.8,21.9,30.18,SSW,202,2.7,2.7,37,0.00,,CLR,0.00,VWS V14.01,2013-01-20 11:56:00,
2013-01-20 04:58:00,46.4,22.2,30.18,South,180,2.9,2.9,38,0.00,,CLR,0.00,VWS V14.01,2013-01-20 11:58:00,
2013-01-20 05:00:00,46.4,22.2,30.18,South,180,2.9,2.9,38,0.00,,CLR,0.00,VWS V14.01,2013-01-20 12:00:00,
2013-01-20 05:03:00,46.4,22.2,30.18,SSE,158,3.1,3.1,38,0.00,,CLR,0.00,VWS V14.01,2013-01-20 12:03:00,
2013-01-20 05:06:00,46.4,22.2,30.18,SSE,158,3.1,3.1,38,0.00,,CLR,0.00,VWS V14.01,2013-01-20 12:06:00,
2013-01-20 05:10:00,46.4,22.2,30.18,SSE,158,3.1,3.1,38,0.00,,CLR,0.00,VWS V14.01,2013-01-20 12:10:00,
2013-01-20 05:17:00,45.9,21.7,30.18,South,180,3.4,3.4,38,0.00,,CLR,0.00,VWS V14.01,2013-01-20 12:17:00,
2013-01-20 05:22:00,45.7,21.5,30.18,NE,45,0.9,0.9,38,0.00,,CLR,0.00,VWS V14.01,2013-01-20 12:22:00,
2013-01-20 05:24:00,45.7,21.5,30.18,NE,45,0.9,0.9,38,0.00,,CLR,0.00,VWS V14.01,2013-01-20 12:24:00,
2013-01-20 05:26:00,45.7,21.5,30.18,NE,45,0.9,0.9,38,0.00,,CLR,0.00,VWS V14.01,2013-01-20 12:26:00,
2013-01-20 05:32:00,45.3,21.2,30.18,NNW,338,2.0,2.0,38,0.00,,CLR,0.00,VWS V14.01,2013-01-20 12:32:00,
2013-01-20 05:34:00,45.1,21.1,30.18,North,0,0.0,2.0,38,0.00,,CLR,0.00,VWS V14.01,2013-01-20 12:34:00,
2013-01-20 05:40:00,44.6,20.6,30.18,North,0,0.0,0.0,38,0.00,,CLR,0.00,VWS V14.01,2013-01-20 12:40:00,
2013-01-20 05:42:00,44.2,20.3,30.18,North,0,0.0,0.0,38,0.00,,CLR,0.00,VWS V14.01,2013-01-20 12:42:00,
2013-01-20 05:44:00,44.1,20.1,30.18,North,0,0.0,0.0,38,0.00,,CLR,0.00,VWS V14.01,2013-01-20 12:44:00,
2013-01-20 05:50:00,43.7,19.8,30.18,NE,45,1.1,1.1,38,0.00,,CLR,0.00,VWS V14.01,2013-01-20 12:50:00,
2013-01-20 05:52:00,43.5,19.6,30.18,NE,45,1.1,1.1,38,0.00,,CLR,0.00,VWS V14.01,2013-01-20 12:52:00,
2013-01-20 05:56:00,43.3,19.5,30.18,NE,45,1.1,1.1,38,0.00,,CLR,0.00,VWS V14.01,2013-01-20 12:56:00,
2013-01-20 05:58:00,43.0,19.1,30.18,NE,45,1.1,1.1,38,0.00,,CLR,0.00,VWS V14.01,2013-01-20 12:58:00,
2013-01-20 06:00:00,42.6,18.8,30.18,NE,45,1.1,1.1,38,0.00,,CLR,0.00,VWS V14.01,2013-01-20 13:00:00,
2013-01-20 06:05:00,42.4,19.2,30.18,NE,45,1.1,1.1,39,0.00,,CLR,0.00,VWS V14.01,2013-01-20 13:05:00,
2013-01-20 06:06:00,41.7,18.6,30.18,SSE,158,0.0,1.1,39,0.00,,CLR,0.00,VWS V14.01,2013-01-20 13:06:00,
2013-01-20 06:10:00,41.5,18.4,30.18,SSE,158,0.0,0.0,39,0.00,,CLR,0.00,VWS V14.01,2013-01-20 13:10:00,
2013-01-20 06:12:00,41.2,18.1,30.18,SSE,158,0.0,0.0,39,0.00,,CLR,0.00,VWS V14.01,2013-01-20 13:12:00,
2013-01-20 06:16:00,40.8,17.8,30.18,SSE,158,0.0,0.0,39,0.00,,CLR,0.00,VWS V14.01,2013-01-20 13:16:00,
2013-01-20 06:18:00,40.6,17.6,30.18,SSE,158,0.0,0.0,39,0.00,,CLR,0.00,VWS V14.01,2013-01-20 13:18:00,
2013-01-20 06:20:00,40.3,17.3,30.18,SSE,158,0.0,0.0,39,0.00,,CLR,0.00,VWS V14.01,2013-01-20 13:20:00,
2013-01-20 06:24:00,39.9,17.6,30.18,SSE,158,0.0,0.0,40,0.00,,CLR,0.00,VWS V14.01,2013-01-20 13:24:00,
2013-01-20 06:27:00,39.9,17.6,30.18,SSE,158,0.0,0.0,40,0.00,,CLR,0.00,VWS V14.01,2013-01-20 13:27:00,
2013-01-20 06:28:00,39.7,17.4,30.18,SW,225,2.9,2.9,40,0.00,,CLR,0.00,VWS V14.01,2013-01-20 13:28:00,
2013-01-20 06:32:00,39.7,17.4,30.18,SW,225,2.5,2.9,40,0.00,,CLR,0.00,VWS V14.01,2013-01-20 13:32:00,
2013-01-20 06:36:00,39.6,17.2,30.18,SW,225,2.5,2.5,40,0.00,,CLR,0.00,VWS V14.01,2013-01-20 13:36:00,
2013-01-20 06:38:00,39.2,16.9,30.18,SW,225,2.9,2.9,40,0.00,,CLR,0.00,VWS V14.01,2013-01-20 13:38:00,
2013-01-20 06:40:00,38.8,16.6,30.18,WSW,248,2.5,2.9,40,0.00,,CLR,0.00,VWS V14.01,2013-01-20 13:40:00,
2013-01-20 06:44:00,38.7,16.4,30.18,WSW,248,2.2,2.2,40,0.00,,CLR,0.00,VWS V14.01,2013-01-20 13:44:00,
2013-01-20 06:47:00,38.7,16.4,30.18,WSW,248,2.2,2.2,40,0.00,,CLR,0.00,VWS V14.01,2013-01-20 13:47:00,
2013-01-20 06:50:00,38.8,17.2,30.18,SSW,202,1.6,2.2,41,0.00,,CLR,0.00,VWS V14.01,2013-01-20 13:50:00,
2013-01-20 06:54:00,38.8,17.2,30.18,SSW,202,0.0,0.0,41,0.00,,CLR,0.00,VWS V14.01,2013-01-20 13:54:00,
2013-01-20 06:56:00,37.8,15.6,30.18,SSW,202,1.1,1.1,40,0.00,,CLR,0.00,VWS V14.01,2013-01-20 13:56:00,
2013-01-20 06:58:00,37.8,15.6,30.18,WSW,248,2.5,2.5,40,0.00,,CLR,0.00,VWS V14.01,2013-01-20 13:58:00,
2013-01-20 07:00:00,37.8,15.6,30.18,WSW,248,1.3,2.5,40,0.00,,CLR,0.00,VWS V14.01,2013-01-20 14:00:00,
2013-01-20 07:02:00,37.0,16.1,30.18,WSW,248,1.3,1.3,42,0.00,,CLR,0.00,VWS V14.01,2013-01-20 14:02:00,
2013-01-20 07:04:00,37.0,16.1,30.18,WSW,248,1.3,1.3,42,0.00,,CLR,0.00,VWS V14.01,2013-01-20 14:04:00,
2013-01-20 07:08:00,37.0,16.1,30.18,WSW,248,1.3,1.3,42,0.00,,CLR,0.00,VWS V14.01,2013-01-20 14:08:00,
2013-01-20 07:14:00,37.0,17.2,30.18,SSW,202,2.5,2.7,44,0.00,,CLR,0.00,VWS V14.01,2013-01-20 14:14:00,
2013-01-20 07:16:00,37.0,17.2,30.18,SSW,202,2.5,2.5,44,0.00,,CLR,0.00,VWS V14.01,2013-01-20 14:16:00,
2013-01-20 07:20:00,37.4,17.5,30.18,SSW,202,1.6,2.5,44,0.00,,CLR,0.00,VWS V14.01,2013-01-20 14:20:00,
2013-01-20 07:25:00,37.4,17.5,30.18,SSW,202,1.6,1.6,44,0.00,,CLR,0.00,VWS V14.01,2013-01-20 14:25:00,
2013-01-20 07:26:00,37.4,17.5,30.18,SSW,202,1.6,1.6,44,0.00,,CLR,0.00,VWS V14.01,2013-01-20 14:26:00,
2013-01-20 07:30:00,37.4,17.5,30.18,SSW,202,1.6,1.6,44,0.00,,CLR,0.00,VWS V14.01,2013-01-20 14:30:00,
2013-01-20 07:32:00,37.4,17.5,30.18,SSW,202,1.6,1.6,44,0.00,,CLR,0.00,VWS V14.01,2013-01-20 14:32:00,
2013-01-20 07:34:00,37.4,17.5,30.18,SSW,202,1.6,1.6,44,0.00,,CLR,0.00,VWS V14.01,2013-01-20 14:34:00,
2013-01-20 07:36:00,37.4,17.5,30.18,SSW,202,1.6,1.6,44,0.00,,CLR,0.00,VWS V14.01,2013-01-20 14:36:00,
2013-01-20 07:40:00,37.4,17.5,30.18,SSW,202,1.6,1.6,44,0.00,,CLR,0.00,VWS V14.01,2013-01-20 14:40:00,
2013-01-20 07:42:00,37.4,17.5,30.18,SSW,202,1.6,1.6,44,0.00,,CLR,0.00,VWS V14.01,2013-01-20 14:42:00,
2013-01-20 07:46:00,37.4,17.5,30.18,SSW,202,2.2,2.2,44,0.00,,CLR,0.00,VWS V14.01,2013-01-20 14:46:00,
2013-01-20 07:50:00,37.4,17.5,30.18,SSW,202,2.7,2.7,44,0.00,,CLR,0.00,VWS V14.01,2013-01-20 14:50:00,
2013-01-20 07:52:00,39.9,20.8,30.18,SSW,202,2.7,2.7,46,0.00,,CLR,0.00,VWS V14.01,2013-01-20 14:52:00,
2013-01-20 07:55:00,39.9,20.8,30.18,SSW,202,2.7,2.7,46,0.00,,CLR,0.00,VWS V14.01,2013-01-20 14:55:00,
2013-01-20 08:00:00,39.9,20.8,30.18,SSW,202,2.7,2.7,46,0.00,,CLR,0.00,VWS V14.01,2013-01-20 15:00:00,
2013-01-20 08:03:00,39.9,20.8,30.18,SW,225,2.5,2.7,46,0.00,,CLR,0.00,VWS V14.01,2013-01-20 15:03:00,
2013-01-20 08:06:00,39.9,20.8,30.18,SW,225,2.5,2.5,46,0.00,,CLR,0.00,VWS V14.01,2013-01-20 15:06:00,
2013-01-20 08:08:00,39.9,20.8,30.18,SSW,202,1.3,2.5,46,0.00,,CLR,0.00,VWS V14.01,2013-01-20 15:08:00,
2013-01-20 08:14:00,39.9,20.8,30.18,South,180,2.9,2.9,46,0.00,,CLR,0.00,VWS V14.01,2013-01-20 15:14:00,
2013-01-20 08:16:00,39.9,20.8,30.18,South,180,2.9,2.9,46,0.00,,CLR,0.00,VWS V14.01,2013-01-20 15:16:00,
2013-01-20 08:22:00,39.9,20.8,30.18,South,180,2.9,2.9,46,0.00,,CLR,0.00,VWS V14.01,2013-01-20 15:22:00,
2013-01-20 08:26:00,39.9,20.8,30.18,South,180,2.9,2.9,46,0.00,,CLR,0.00,VWS V14.01,2013-01-20 15:26:00,
2013-01-20 08:28:00,39.9,20.8,30.18,South,180,2.9,2.9,46,0.00,,CLR,0.00,VWS V14.01,2013-01-20 15:28:00,
2013-01-20 08:30:00,39.9,20.8,30.18,South,180,2.9,2.9,46,0.00,,CLR,0.00,VWS V14.01,2013-01-20 15:30:00,
2013-01-20 08:32:00,39.9,20.8,30.18,South,180,2.9,2.9,46,0.00,,CLR,0.00,VWS V14.01,2013-01-20 15:32:00,
2013-01-20 08:34:00,39.9,20.8,30.18,South,180,2.9,2.9,46,0.00,,CLR,0.00,VWS V14.01,2013-01-20 15:34:00,
2013-01-20 08:36:00,39.9,20.8,30.18,South,180,2.9,2.9,46,0.00,,CLR,0.00,VWS V14.01,2013-01-20 15:36:00,
2013-01-20 08:40:00,39.9,20.8,30.18,South,180,2.9,2.9,46,0.00,,CLR,0.00,VWS V14.01,2013-01-20 15:40:00,
2013-01-20 08:44:00,39.9,20.8,30.18,South,180,2.9,2.9,46,0.00,,CLR,0.00,VWS V14.01,2013-01-20 15:44:00,
2013-01-20 08:46:00,39.9,20.8,30.18,South,180,2.9,2.9,46,0.00,,CLR,0.00,VWS V14.01,2013-01-20 15:46:00,
2013-01-20 08:48:00,39.9,20.8,30.18,South,180,2.9,2.9,46,0.00,,CLR,0.00,VWS V14.01,2013-01-20 15:48:00,
2013-01-20 08:54:00,39.9,20.8,30.18,South,180,2.9,2.9,46,0.00,,CLR,0.00,VWS V14.01,2013-01-20 15:54:00,
2013-01-20 08:58:00,58.5,26.3,30.18,South,180,3.1,5.6,29,0.00,,CLR,0.00,VWS V14.01,2013-01-20 15:58:00,
2013-01-20 09:04:00,58.8,25.8,30.18,SE,135,5.6,8.5,28,0.00,,CLR,0.00,VWS V14.01,2013-01-20 16:04:00,
2013-01-20 09:08:00,59.0,24.2,30.18,SE,135,4.3,8.5,26,0.00,,CLR,0.00,VWS V14.01,2013-01-20 16:08:00,
2013-01-20 09:10:00,59.2,24.3,30.21,SE,135,4.0,6.3,26,0.00,,CLR,0.00,VWS V14.01,2013-01-20 16:10:00,
2013-01-20 09:12:00,59.5,24.6,30.21,ESE,112,3.6,5.8,26,0.00,,CLR,0.00,VWS V14.01,2013-01-20 16:12:00,
2013-01-20 09:16:00,59.9,25.0,30.21,SSE,158,5.4,6.0,26,0.00,,CLR,0.00,VWS V14.01,2013-01-20 16:16:00,
2013-01-20 09:20:00,59.7,23.9,30.21,SE,135,3.4,5.4,25,0.00,,CLR,0.00,VWS V14.01,2013-01-20 16:20:00,
2013-01-20 09:22:00,60.1,24.2,30.21,SSE,158,2.5,8.5,25,0.00,,CLR,0.00,VWS V14.01,2013-01-20 16:22:00,
2013-01-20 09:25:00,60.3,24.3,30.21,SE,135,4.3,5.6,25,0.00,,CLR,0.00,VWS V14.01,2013-01-20 16:25:00,
2013-01-20 09:28:00,59.9,23.0,30.21,SSE,158,5.8,8.5,24,0.00,,CLR,0.00,VWS V14.01,2013-01-20 16:28:00,
2013-01-20 09:30:00,59.7,22.9,30.21,SE,135,5.6,6.5,24,0.00,,CLR,0.00,VWS V14.01,2013-01-20 16:30:00,
2013-01-20 09:34:00,59.7,22.9,30.21,SSE,158,1.3,7.2,24,0.00,,CLR,0.00,VWS V14.01,2013-01-20 16:34:00,
2013-01-20 09:38:00,60.3,23.4,30.21,SSE,158,7.6,7.6,24,0.00,,CLR,0.00,VWS V14.01,2013-01-20 16:38:00,
2013-01-20 09:41:00,60.3,23.4,30.21,SSE,158,3.1,8.1,24,0.00,,CLR,0.00,VWS V14.01,2013-01-20 16:41:00,
2013-01-20 09:46:00,60.4,21.4,30.21,ESE,112,3.6,7.4,22,0.00,,CLR,0.00,VWS V14.01,2013-01-20 16:46:00,
2013-01-20 09:48:00,61.0,20.8,30.21,SE,135,3.6,3.6,21,0.00,,CLR,0.00,VWS V14.01,2013-01-20 16:48:00,
2013-01-20 09:50:00,61.0,20.8,30.21,South,180,3.6,4.5,21,0.00,,CLR,0.00,VWS V14.01,2013-01-20 16:50:00,
2013-01-20 09:55:00,61.3,18.8,30.21,SSE,158,5.4,5.6,19,0.00,,CLR,0.00,VWS V14.01,2013-01-20 16:55:00,
2013-01-20 09:56:00,61.3,18.8,30.21,SSE,158,5.4,5.4,19,0.00,,CLR,0.00,VWS V14.01,2013-01-20 16:56:00,
2013-01-20 10:00:00,61.3,18.8,30.21,SSW,202,6.3,7.8,19,0.00,,CLR,0.00,VWS V14.01,2013-01-20 17:00:00,
2013-01-20 10:02:00,61.3,18.8,30.21,SSE,158,5.8,6.3,19,0.00,,CLR,0.00,VWS V14.01,2013-01-20 17:02:00,
2013-01-20 10:06:00,61.3,18.8,30.21,SSE,158,3.8,9.8,19,0.00,,CLR,0.00,VWS V14.01,2013-01-20 17:06:00,
2013-01-20 10:08:00,61.3,18.8,30.21,SSE,158,4.0,6.7,19,0.00,,CLR,0.00,VWS V14.01,2013-01-20 17:08:00,
2013-01-20 10:10:00,61.3,18.8,30.21,SSE,158,4.7,6.0,19,0.00,,CLR,0.00,VWS V14.01,2013-01-20 17:10:00,
2013-01-20 10:16:00,61.7,12.1,30.21,ESE,112,7.8,7.8,14,0.00,,CLR,0.00,VWS V14.01,2013-01-20 17:16:00,
2013-01-20 10:18:00,61.7,12.1,30.21,ESE,112,7.8,7.8,14,0.00,,CLR,0.00,VWS V14.01,2013-01-20 17:18:00,
2013-01-20 10:20:00,61.7,12.1,30.21,ESE,112,6.5,7.8,14,0.00,,CLR,0.00,VWS V14.01,2013-01-20 17:20:00,
2013-01-20 10:22:00,61.7,6.7,30.21,ESE,112,7.8,7.8,11,0.00,,CLR,0.00,VWS V14.01,2013-01-20 17:22:00,
2013-01-20 10:24:00,61.7,6.7,30.21,SE,135,10.1,10.1,11,0.00,,CLR,0.00,VWS V14.01,2013-01-20 17:24:00,
2013-01-20 10:28:00,61.7,2.3,30.24,SE,135,10.7,10.7,9,0.00,,CLR,0.00,VWS V14.01,2013-01-20 17:28:00,
2013-01-20 10:30:00,61.2,1.9,30.24,SE,135,12.5,12.5,9,0.00,,CLR,0.00,VWS V14.01,2013-01-20 17:30:00,
2013-01-20 10:34:00,61.7,6.7,30.24,SE,135,8.7,8.7,11,0.00,,CLR,0.00,VWS V14.01,2013-01-20 17:34:00,
2013-01-20 10:39:00,61.9,2.5,30.24,ESE,112,7.4,8.7,9,0.00,,CLR,0.00,VWS V14.01,2013-01-20 17:39:00,
2013-01-20 10:40:00,61.9,2.5,30.21,SSE,158,10.1,10.1,9,0.00,,CLR,0.00,VWS V14.01,2013-01-20 17:40:00,
2013-01-20 10:46:00,62.2,2.7,30.21,East,90,4.3,6.5,9,0.00,,CLR,0.00,VWS V14.01,2013-01-20 17:46:00,
2013-01-20 10:48:00,62.2,2.7,30.21,SSE,158,7.6,7.6,9,0.00,,CLR,0.00,VWS V14.01,2013-01-20 17:48:00,
2013-01-20 10:50:00,62.2,2.7,30.21,South,180,3.6,7.8,9,0.00,,CLR,0.00,VWS V14.01,2013-01-20 17:50:00,
2013-01-20 10:52:00,62.2,2.7,30.21,ESE,112,3.8,7.8,9,0.00,,CLR,0.00,VWS V14.01,2013-01-20 17:52:00,
2013-01-20 10:56:00,62.2,2.7,30.21,ESE,112,6.3,7.6,9,0.00,,CLR,0.00,VWS V14.01,2013-01-20 17:56:00,
2013-01-20 10:58:00,62.2,2.7,30.21,ENE,68,6.5,6.5,9,0.00,,CLR,0.00,VWS V14.01,2013-01-20 17:58:00,
2013-01-20 11:04:00,62.2,2.7,30.21,ESE,112,7.2,7.2,9,0.00,,CLR,0.00,VWS V14.01,2013-01-20 18:04:00,
2013-01-20 11:06:00,64.2,-4.4,30.21,ESE,112,6.0,8.1,6,0.00,,CLR,0.00,VWS V14.01,2013-01-20 18:06:00,
2013-01-20 11:10:00,64.0,-4.5,30.21,SE,135,6.0,7.6,6,0.00,,CLR,0.00,VWS V14.01,2013-01-20 18:10:00,
2013-01-20 11:12:00,64.0,-4.5,30.21,SE,135,7.6,7.6,6,0.00,,CLR,0.00,VWS V14.01,2013-01-20 18:12:00,
2013-01-20 11:16:00,64.2,-4.4,30.21,ESE,112,7.8,7.8,6,0.00,,CLR,0.00,VWS V14.01,2013-01-20 18:16:00,
2013-01-20 11:19:00,64.2,-4.4,30.21,ENE,68,8.5,8.5,6,0.00,,CLR,0.00,VWS V14.01,2013-01-20 18:19:00,
2013-01-20 11:20:00,64.2,-4.4,30.21,ESE,112,8.1,8.7,6,0.00,,CLR,0.00,VWS V14.01,2013-01-20 18:20:00,
2013-01-20 11:22:00,64.2,-4.4,30.21,ENE,68,4.3,8.1,6,0.00,,CLR,0.00,VWS V14.01,2013-01-20 18:22:00,
2013-01-20 11:24:00,64.2,-4.4,30.21,SE,135,7.6,10.1,6,0.00,,CLR,0.00,VWS V14.01,2013-01-20 18:24:00,
2013-01-20 11:28:00,65.3,-7.4,30.18,ESE,112,8.1,8.1,5,0.00,,CLR,0.00,VWS V14.01,2013-01-20 18:28:00,
2013-01-20 11:34:00,65.7,-11.6,30.18,ENE,68,3.6,4.3,4,0.00,,CLR,0.00,VWS V14.01,2013-01-20 18:34:00,
2013-01-20 11:38:00,65.5,-11.8,30.18,ENE,68,5.6,5.6,4,0.00,,CLR,0.00,VWS V14.01,2013-01-20 18:38:00,
2013-01-20 11:42:00,65.5,-11.8,30.18,ENE,68,5.6,5.6,4,0.00,,CLR,0.00,VWS V14.01,2013-01-20 18:42:00,
2013-01-20 11:44:00,65.5,-11.8,30.18,ENE,68,3.1,5.6,4,0.00,,CLR,0.00,VWS V14.01,2013-01-20 18:44:00,
2013-01-20 11:50:00,66.6,-6.5,30.18,SE,135,4.7,7.6,5,0.00,,CLR,0.00,VWS V14.01,2013-01-20 18:50:00,
2013-01-20 11:52:00,66.2,-6.7,30.18,ESE,112,4.9,7.4,5,0.00,,CLR,0.00,VWS V14.01,2013-01-20 18:52:00,
2013-01-20 11:56:00,66.4,-11.1,30.15,ENE,68,3.4,8.1,4,0.00,,CLR,0.00,VWS V14.01,2013-01-20 18:56:00,
2013-01-20 11:58:00,66.6,-11.0,30.15,ENE,68,5.6,5.6,4,0.00,,CLR,0.00,VWS V14.01,2013-01-20 18:58:00,
2013-01-20 12:02:00,66.6,-11.0,30.15,SSE,158,4.7,5.6,4,0.00,,CLR,0.00,VWS V14.01,2013-01-20 19:02:00,
2013-01-20 12:04:00,66.6,-11.0,30.15,ENE,68,6.3,8.1,4,0.00,,CLR,0.00,VWS V14.01,2013-01-20 19:04:00,
2013-01-20 12:08:00,67.1,-6.1,30.15,ENE,68,1.3,4.0,5,0.00,,CLR,0.00,VWS V14.01,2013-01-20 19:08:00,
2013-01-20 12:10:00,67.6,1.4,30.15,ESE,112,6.0,6.0,7,0.00,,CLR,0.00,VWS V14.01,2013-01-20 19:10:00,
2013-01-20 12:12:00,67.6,1.4,30.15,ENE,68,3.6,6.0,7,0.00,,CLR,0.00,VWS V14.01,2013-01-20 19:12:00,
2013-01-20 12:14:00,67.6,1.4,30.15,NE,45,1.3,3.6,7,0.00,,CLR,0.00,VWS V14.01,2013-01-20 19:14:00,
2013-01-20 12:16:00,67.6,1.4,30.15,East,90,3.6,6.5,7,0.00,,CLR,0.00,VWS V14.01,2013-01-20 19:16:00,
2013-01-20 12:22:00,67.6,1.4,30.15,ENE,68,4.0,5.6,7,0.00,,CLR,0.00,VWS V14.01,2013-01-20 19:22:00,
2013-01-20 12:24:00,67.6,1.4,30.15,ESE,112,5.4,7.8,7,0.00,,CLR,0.00,VWS V14.01,2013-01-20 19:24:00,
2013-01-20 12:26:00,67.6,1.4,30.15,SE,135,5.6,5.6,7,0.00,,CLR,0.00,VWS V14.01,2013-01-20 19:26:00,
2013-01-20 12:28:00,67.6,1.4,30.15,ENE,68,2.0,8.5,7,0.00,,CLR,0.00,VWS V14.01,2013-01-20 19:28:00,
2013-01-20 12:30:00,67.6,1.4,30.15,NE,45,6.3,6.5,7,0.00,,CLR,0.00,VWS V14.01,2013-01-20 19:30:00,
2013-01-20 12:32:00,67.6,1.4,30.15,ENE,68,5.8,7.6,7,0.00,,CLR,0.00,VWS V14.01,2013-01-20 19:32:00,
2013-01-20 12:38:00,68.5,9.8,30.15,NE,45,5.6,8.7,10,0.00,,CLR,0.00,VWS V14.01,2013-01-20 19:38:00,
2013-01-20 12:44:00,68.9,2.3,30.15,SE,135,2.9,6.5,7,0.00,,CLR,0.00,VWS V14.01,2013-01-20 19:44:00,
2013-01-20 12:48:00,68.9,10.1,30.15,SSW,202,3.8,8.1,10,0.00,,CLR,0.00,VWS V14.01,2013-01-20 19:48:00,
2013-01-20 12:50:00,68.9,10.1,30.15,ENE,68,3.1,6.7,10,0.00,,CLR,0.00,VWS V14.01,2013-01-20 19:50:00,
2013-01-20 12:52:00,68.9,10.1,30.15,ENE,68,1.6,3.1,10,0.00,,CLR,0.00,VWS V14.01,2013-01-20 19:52:00,
2013-01-20 12:56:00,68.9,10.1,30.15,ENE,68,5.6,6.5,10,0.00,,CLR,0.00,VWS V14.01,2013-01-20 19:56:00,
2013-01-20 12:58:00,68.9,10.1,30.15,ENE,68,6.5,6.5,10,0.00,,CLR,0.00,VWS V14.01,2013-01-20 19:58:00,
2013-01-20 13:02:00,70.5,9.0,30.15,NE,45,6.0,7.8,9,0.00,,CLR,0.00,VWS V14.01,2013-01-20 20:02:00,
2013-01-20 13:04:00,70.5,9.0,30.15,NNE,22,5.4,11.0,9,0.00,,CLR,0.00,VWS V14.01,2013-01-20 20:04:00,
2013-01-20 13:10:00,70.5,15.5,30.12,ENE,68,4.3,5.6,12,0.00,,CLR,0.00,VWS V14.01,2013-01-20 20:10:00,
2013-01-20 13:12:00,70.2,8.7,30.12,East,90,5.6,8.7,9,0.00,,CLR,0.00,VWS V14.01,2013-01-20 20:12:00,
2013-01-20 13:14:00,70.5,9.0,30.12,ENE,68,2.5,5.6,9,0.00,,CLR,0.00,VWS V14.01,2013-01-20 20:14:00,
2013-01-20 13:16:00,70.7,9.1,30.12,SW,225,3.1,7.8,9,0.00,,CLR,0.00,VWS V14.01,2013-01-20 20:16:00,
2013-01-20 13:22:00,70.7,9.1,30.12,SE,135,10.1,12.3,9,0.00,,CLR,0.00,VWS V14.01,2013-01-20 20:22:00,
2013-01-20 13:25:00,71.2,16.1,30.12,SE,135,3.6,10.1,12,0.00,,CLR,0.00,VWS V14.01,2013-01-20 20:25:00,
2013-01-20 13:28:00,71.2,16.1,30.12,ENE,68,5.6,5.6,12,0.00,,CLR,0.00,VWS V14.01,2013-01-20 20:28:00,
2013-01-20 13:30:00,71.2,16.1,30.12,ESE,112,7.6,7.6,12,0.00,,CLR,0.00,VWS V14.01,2013-01-20 20:30:00,
2013-01-20 13:34:00,71.4,19.8,30.12,NE,45,3.6,4.3,14,0.00,,CLR,0.00,VWS V14.01,2013-01-20 20:34:00,
2013-01-20 13:36:00,71.8,20.1,30.12,NE,45,2.9,4.3,14,0.00,,CLR,0.00,VWS V14.01,2013-01-20 20:36:00,
2013-01-20 13:38:00,71.8,20.1,30.12,SE,135,4.7,6.5,14,0.00,,CLR,0.00,VWS V14.01,2013-01-20 20:38:00,
2013-01-20 13:40:00,71.8,20.1,30.12,ENE,68,5.6,5.6,14,0.00,,CLR,0.00,VWS V14.01,2013-01-20 20:40:00,
2013-01-20 13:42:00,71.8,20.1,30.12,ENE,68,3.8,8.1,14,0.00,,CLR,0.00,VWS V14.01,2013-01-20 20:42:00,
2013-01-20 13:46:00,71.8,20.1,30.12,SE,135,6.5,6.5,14,0.00,,CLR,0.00,VWS V14.01,2013-01-20 20:46:00,
2013-01-20 13:48:00,71.8,20.1,30.12,SSE,158,4.3,6.5,14,0.00,,CLR,0.00,VWS V14.01,2013-01-20 20:48:00,
2013-01-20 13:54:00,71.8,20.1,30.12,East,90,1.3,2.7,14,0.00,,CLR,0.00,VWS V14.01,2013-01-20 20:54:00,
2013-01-20 13:58:00,71.8,20.1,30.09,East,90,6.0,6.5,14,0.00,,CLR,0.00,VWS V14.01,2013-01-20 20:58:00,
2013-01-20 14:00:00,71.8,20.1,30.09,SSE,158,6.5,7.2,14,0.00,,CLR,0.00,VWS V14.01,2013-01-20 21:00:00,
2013-01-20 14:02:00,71.8,20.1,30.09,South,180,1.6,6.5,14,0.00,,CLR,0.00,VWS V14.01,2013-01-20 21:02:00,
2013-01-20 14:04:00,71.8,20.1,30.09,SSE,158,6.3,7.8,14,0.00,,CLR,0.00,VWS V14.01,2013-01-20 21:04:00,
2013-01-20 14:10:00,71.8,20.1,30.09,South,180,4.3,7.2,14,0.00,,CLR,0.00,VWS V14.01,2013-01-20 21:10:00,
2013-01-20 14:16:00,71.8,20.1,30.09,ENE,68,4.3,5.8,14,0.00,,CLR,0.00,VWS V14.01,2013-01-20 21:16:00,
2013-01-20 14:18:00,71.8,20.1,30.09,ENE,68,6.5,6.5,14,0.00,,CLR,0.00,VWS V14.01,2013-01-20 21:18:00,
2013-01-20 14:22:00,71.8,20.1,30.09,NE,45,4.3,5.8,14,0.00,,CLR,0.00,VWS V14.01,2013-01-20 21:22:00,
2013-01-20 14:24:00,71.8,20.1,30.09,ENE,68,3.1,5.4,14,0.00,,CLR,0.00,VWS V14.01,2013-01-20 21:24:00,
2013-01-20 14:26:00,71.8,20.1,30.09,NNE,22,3.6,3.6,14,0.00,,CLR,0.00,VWS V14.01,2013-01-20 21:26:00,
2013-01-20 14:29:00,71.8,20.1,30.09,NW,315,2.9,5.6,14,0.00,,CLR,0.00,VWS V14.01,2013-01-20 21:29:00,
2013-01-20 14:31:00,71.8,20.1,30.09,North,0,5.6,5.6,14,0.00,,CLR,0.00,VWS V14.01,2013-01-20 21:31:00,
2013-01-20 14:34:00,71.8,20.1,30.09,NNE,22,4.0,6.5,14,0.00,,CLR,0.00,VWS V14.01,2013-01-20 21:34:00,
2013-01-20 14:38:00,71.8,20.1,30.09,ENE,68,4.9,5.4,14,0.00,,CLR,0.00,VWS V14.01,2013-01-20 21:38:00,
2013-01-20 14:42:00,71.8,20.1,30.09,ENE,68,6.3,7.2,14,0.00,,CLR,0.00,VWS V14.01,2013-01-20 21:42:00,
2013-01-20 14:44:00,71.8,20.1,30.09,NE,45,2.5,8.1,14,0.00,,CLR,0.00,VWS V14.01,2013-01-20 21:44:00,
2013-01-20 14:49:00,71.8,20.1,30.09,ENE,68,2.7,3.4,14,0.00,,CLR,0.00,VWS V14.01,2013-01-20 21:49:00,
2013-01-20 14:50:00,71.8,20.1,30.09,SSE,158,0.0,2.7,14,0.00,,CLR,0.00,VWS V14.01,2013-01-20 21:50:00,
2013-01-20 14:52:00,71.8,20.1,30.09,ENE,68,1.1,1.1,14,0.00,,CLR,0.00,VWS V14.01,2013-01-20 21:52:00,
2013-01-20 14:54:00,71.8,20.1,30.09,NE,45,4.5,4.5,14,0.00,,CLR,0.00,VWS V14.01,2013-01-20 21:54:00,
2013-01-20 15:00:00,72.1,1.4,30.06,NE,45,7.4,8.5,6,0.00,,CLR,0.00,VWS V14.01,2013-01-20 22:00:00,
2013-01-20 15:02:00,72.1,1.4,30.06,NE,45,5.4,7.4,6,0.00,,CLR,0.00,VWS V14.01,2013-01-20 22:02:00,
2013-01-20 15:08:00,72.1,1.4,30.06,NE,45,4.3,5.8,6,0.00,,CLR,0.00,VWS V14.01,2013-01-20 22:08:00,
2013-01-20 15:12:00,72.1,1.4,30.09,NNE,22,2.7,4.9,6,0.00,,CLR,0.00,VWS V14.01,2013-01-20 22:12:00,
2013-01-20 15:14:00,72.1,1.4,30.09,East,90,6.3,6.3,6,0.00,,CLR,0.00,VWS V14.01,2013-01-20 22:14:00,
2013-01-20 15:18:00,72.1,1.4,30.09,ESE,112,4.3,5.6,6,0.00,,CLR,0.00,VWS V14.01,2013-01-20 22:18:00,
2013-01-20 15:20:00,72.1,1.4,30.09,ESE,112,3.1,6.5,6,0.00,,CLR,0.00,VWS V14.01,2013-01-20 22:20:00,
2013-01-20 15:22:00,72.1,1.4,30.09,East,90,2.7,6.5,6,0.00,,CLR,0.00,VWS V14.01,2013-01-20 22:22:00,
2013-01-20 15:26:00,72.1,1.4,30.09,ENE,68,1.1,4.3,6,0.00,,CLR,0.00,VWS V14.01,2013-01-20 22:26:00,
2013-01-20 15:32:00,72.1,1.4,30.09,WNW,292,2.0,3.4,6,0.00,,CLR,0.00,VWS V14.01,2013-01-20 22:32:00,
2013-01-20 15:38:00,72.1,1.4,30.09,ENE,68,2.9,2.9,6,0.00,,CLR,0.00,VWS V14.01,2013-01-20 22:38:00,
2013-01-20 15:40:00,72.1,1.4,30.09,NNW,338,2.7,3.4,6,0.00,,CLR,0.00,VWS V14.01,2013-01-20 22:40:00,
2013-01-20 15:42:00,72.1,1.4,30.09,East,90,1.1,2.7,6,0.00,,CLR,0.00,VWS V14.01,2013-01-20 22:42:00,
2013-01-20 15:48:00,71.6,-7.5,30.09,NE,45,0.0,2.2,4,0.00,,CLR,0.00,VWS V14.01,2013-01-20 22:48:00,
2013-01-20 15:52:00,71.6,-7.5,30.09,ENE,68,2.5,3.1,4,0.00,,CLR,0.00,VWS V14.01,2013-01-20 22:52:00,
2013-01-20 15:54:00,71.6,-7.5,30.09,East,90,3.8,3.8,4,0.00,,CLR,0.00,VWS V14.01,2013-01-20 22:54:00,
2013-01-20 15:58:00,71.6,-7.5,30.09,ENE,68,4.3,4.3,4,0.00,,CLR,0.00,VWS V14.01,2013-01-20 22:58:00,
2013-01-20 16:00:00,71.6,-7.5,30.09,East,90,3.1,4.3,4,0.00,,CLR,0.00,VWS V14.01,2013-01-20 23:00:00,
2013-01-20 16:06:00,71.6,-7.5,30.09,NNE,22,4.0,4.0,4,0.00,,CLR,0.00,VWS V14.01,2013-01-20 23:06:00,
2013-01-20 16:08:00,71.6,-7.5,30.09,NE,45,3.6,4.7,4,0.00,,CLR,0.00,VWS V14.01,2013-01-20 23:08:00,
2013-01-20 16:14:00,71.6,-7.5,30.09,ENE,68,2.2,3.6,4,0.00,,CLR,0.00,VWS V14.01,2013-01-20 23:14:00,
2013-01-20 16:18:00,71.6,-7.5,30.09,NE,45,1.1,2.0,4,0.00,,CLR,0.00,VWS V14.01,2013-01-20 23:18:00,
2013-01-20 16:20:00,71.6,-7.5,30.09,NE,45,5.4,5.4,4,0.00,,CLR,0.00,VWS V14.01,2013-01-20 23:20:00,
2013-01-20 16:24:00,71.6,-7.5,30.09,NNE,22,0.0,2.5,4,0.00,,CLR,0.00,VWS V14.01,2013-01-20 23:24:00,
2013-01-20 16:26:00,68.4,-5.2,30.09,NNE,22,2.2,2.5,5,0.00,,CLR,0.00,VWS V14.01,2013-01-20 23:26:00,
2013-01-20 16:30:00,68.4,-5.2,30.09,NE,45,1.6,2.5,5,0.00,,CLR,0.00,VWS V14.01,2013-01-20 23:30:00,
2013-01-20 16:32:00,68.4,-5.2,30.09,NE,45,2.2,2.2,5,0.00,,CLR,0.00,VWS V14.01,2013-01-20 23:32:00,
2013-01-20 16:37:00,68.0,-5.4,30.09,NE,45,1.6,3.1,5,0.00,,CLR,0.00,VWS V14.01,2013-01-20 23:37:00,
2013-01-20 16:42:00,68.0,-5.4,30.06,ENE,68,1.1,1.6,5,0.00,,CLR,0.00,VWS V14.01,2013-01-20 23:42:00,
2013-01-20 16:44:00,68.0,-5.4,30.06,ENE,68,0.0,1.3,5,0.00,,CLR,0.00,VWS V14.01,2013-01-20 23:44:00,
2013-01-20 16:48:00,68.0,-5.4,30.06,ENE,68,2.9,3.1,5,0.00,,CLR,0.00,VWS V14.01,2013-01-20 23:48:00,
2013-01-20 16:50:00,68.0,-5.4,30.06,East,90,2.2,2.9,5,0.00,,CLR,0.00,VWS V14.01,2013-01-20 23:50:00,
2013-01-20 16:52:00,68.0,-5.4,30.06,ENE,68,1.6,2.2,5,0.00,,CLR,0.00,VWS V14.01,2013-01-20 23:52:00,
2013-01-20 16:54:00,68.0,-5.4,30.06,ENE,68,2.2,2.2,5,0.00,,CLR,0.00,VWS V14.01,2013-01-20 23:54:00,
2013-01-20 17:00:00,68.0,-5.4,30.09,ENE,68,0.0,1.1,5,0.00,,CLR,0.00,VWS V14.01,2013-01-21 00:00:00,
2013-01-20 17:04:00,68.0,-5.4,30.09,ENE,68,0.0,0.0,5,0.00,,CLR,0.00,VWS V14.01,2013-01-21 00:04:00,
2013-01-20 17:06:00,68.0,-5.4,30.09,ENE,68,0.0,0.0,5,0.00,,CLR,0.00,VWS V14.01,2013-01-21 00:06:00,
2013-01-20 17:10:00,68.0,-5.4,30.09,ESE,112,2.0,2.0,5,0.00,,CLR,0.00,VWS V14.01,2013-01-21 00:10:00,
2013-01-20 17:17:00,68.0,-5.4,30.09,SSW,202,1.6,2.2,5,0.00,,CLR,0.00,VWS V14.01,2013-01-21 00:17:00,
2013-01-20 17:18:00,68.0,-5.4,30.09,SW,225,2.7,2.7,5,0.00,,CLR,0.00,VWS V14.01,2013-01-21 00:18:00,
2013-01-20 17:24:00,68.0,-5.4,30.09,SSW,202,2.7,2.7,5,0.00,,CLR,0.00,VWS V14.01,2013-01-21 00:24:00,
2013-01-20 17:28:00,68.0,-5.4,30.09,WSW,248,1.3,2.0,5,0.00,,CLR,0.00,VWS V14.01,2013-01-21 00:28:00,
2013-01-20 17:30:00,68.0,-5.4,30.09,SSW,202,2.0,2.0,5,0.00,,CLR,0.00,VWS V14.01,2013-01-21 00:30:00,
2013-01-20 17:34:00,68.0,-5.4,30.09,ENE,68,0.0,1.6,5,0.00,,CLR,0.00,VWS V14.01,2013-01-21 00:34:00,
2013-01-20 17:36:00,68.0,-5.4,30.09,ENE,68,0.0,0.9,5,0.00,,CLR,0.00,VWS V14.01,2013-01-21 00:36:00,
2013-01-20 17:40:00,68.0,-5.4,30.09,SW,225,0.9,1.3,5,0.00,,CLR,0.00,VWS V14.01,2013-01-21 00:40:00,
2013-01-20 17:43:00,68.0,-5.4,30.09,SSW,202,0.9,2.5,5,0.00,,CLR,0.00,VWS V14.01,2013-01-21 00:43:00,
2013-01-20 17:46:00,68.0,-5.4,30.09,SW,225,2.7,2.7,5,0.00,,CLR,0.00,VWS V14.01,2013-01-21 00:46:00,
2013-01-20 17:48:00,68.0,-5.4,30.09,WSW,248,0.0,2.9,5,0.00,,CLR,0.00,VWS V14.01,2013-01-21 00:48:00,
2013-01-20 17:53:00,68.0,-5.4,30.09,SSW,202,1.3,1.3,5,0.00,,CLR,0.00,VWS V14.01,2013-01-21 00:53:00,
2013-01-20 17:54:00,68.0,-5.4,30.09,SW,225,2.9,3.4,5,0.00,,CLR,0.00,VWS V14.01,2013-01-21 00:54:00,
2013-01-20 17:58:00,68.0,-5.4,30.06,South,180,2.0,3.4,5,0.00,,CLR,0.00,VWS V14.01,2013-01-21 00:58:00,
2013-01-20 18:00:00,68.0,-5.4,30.06,SSW,202,2.9,3.1,5,0.00,,CLR,0.00,VWS V14.01,2013-01-21 01:00:00,
2013-01-20 18:06:00,58.1,27.6,30.06,SW,225,3.1,3.1,31,0.00,,CLR,0.00,VWS V14.01,2013-01-21 01:06:00,
2013-01-20 18:09:00,58.1,27.6,30.06,SSW,202,1.6,3.1,31,0.00,,CLR,0.00,VWS V14.01,2013-01-21 01:09:00,
2013-01-20 18:10:00,57.9,27.5,30.09,SW,225,2.7,3.1,31,0.00,,CLR,0.00,VWS V14.01,2013-01-21 01:10:00,
2013-01-20 18:12:00,57.6,28.0,30.09,SW,225,2.7,2.7,32,0.00,,CLR,0.00,VWS V14.01,2013-01-21 01:12:00,
2013-01-20 18:14:00,57.6,28.0,30.09,SW,225,2.7,2.7,32,0.00,,CLR,0.00,VWS V14.01,2013-01-21 01:14:00,
2013-01-20 18:18:00,57.2,27.6,30.09,SW,225,2.7,2.9,32,0.00,,CLR,0.00,VWS V14.01,2013-01-21 01:18:00,
2013-01-20 18:26:00,56.1,28.1,30.09,SW,225,3.4,3.6,34,0.00,,CLR,0.00,VWS V14.01,2013-01-21 01:26:00,
2013-01-20 18:28:00,55.8,28.5,30.09,SW,225,3.4,3.4,35,0.00,,CLR,0.00,VWS V14.01,2013-01-21 01:28:00,
2013-01-20 18:32:00,55.4,28.2,30.09,SSW,202,2.0,2.7,35,0.00,,CLR,0.00,VWS V14.01,2013-01-21 01:32:00,
2013-01-20 18:38:00,54.3,28.0,30.09,SSW,202,3.1,3.6,36,0.00,,CLR,0.00,VWS V14.01,2013-01-21 01:38:00,
2013-01-20 18:41:00,54.1,27.8,30.09,SSW,202,3.1,3.1,36,0.00,,CLR,0.00,VWS V14.01,2013-01-21 01:41:00,
2013-01-20 18:44:00,54.5,28.1,30.09,SSW,202,3.1,3.1,36,0.00,,CLR,0.00,VWS V14.01,2013-01-21 01:44:00,
2013-01-20 18:48:00,54.7,28.3,30.09,SSW,202,3.1,3.1,36,0.00,,CLR,0.00,VWS V14.01,2013-01-21 01:48:00,
2013-01-20 18:50:00,54.9,28.4,30.09,SSW,202,3.1,3.1,36,0.00,,CLR,0.00,VWS V14.01,2013-01-21 01:50:00,
2013-01-20 18:52:00,54.9,28.4,30.09,SSW,202,3.1,3.1,36,0.00,,CLR,0.00,VWS V14.01,2013-01-21 01:52:00,
2013-01-20 18:58:00,54.5,28.1,30.09,SSW,202,3.1,3.1,36,0.00,,CLR,0.00,VWS V14.01,2013-01-21 01:58:00,
2013-01-20 19:00:00,54.5,28.1,30.09,SSW,202,3.1,3.1,36,0.00,,CLR,0.00,VWS V14.01,2013-01-21 02:00:00,
2013-01-20 19:04:00,54.5,28.1,30.09,SSW,202,3.1,3.1,36,0.00,,CLR,0.00,VWS V14.01,2013-01-21 02:04:00,
2013-01-20 19:08:00,54.1,27.8,30.09,SSW,202,3.1,3.1,36,0.00,,CLR,0.00,VWS V14.01,2013-01-21 02:08:00,
2013-01-20 19:12:00,54.0,27.6,30.12,SSW,202,4.0,4.0,36,0.00,,CLR,0.00,VWS V14.01,2013-01-21 02:12:00,
2013-01-20 19:14:00,53.8,27.5,30.12,SSW,202,3.6,4.0,36,0.00,,CLR,0.00,VWS V14.01,2013-01-21 02:14:00,
2013-01-20 19:18:00,53.8,27.5,30.12,SSW,202,3.1,3.4,36,0.00,,CLR,0.00,VWS V14.01,2013-01-21 02:18:00,
2013-01-20 19:24:00,53.8,27.5,30.12,SSW,202,3.1,3.4,36,0.00,,CLR,0.00,VWS V14.01,2013-01-21 02:24:00,
2013-01-20 19:28:00,54.0,27.6,30.12,South,180,3.4,3.4,36,0.00,,CLR,0.00,VWS V14.01,2013-01-21 02:28:00,
2013-01-20 19:30:00,54.0,27.6,30.12,South,180,2.7,3.4,36,0.00,,CLR,0.00,VWS V14.01,2013-01-21 02:30:00,
2013-01-20 19:34:00,54.1,27.8,30.12,South,180,1.3,4.5,36,0.00,,CLR,0.00,VWS V14.01,2013-01-21 02:34:00,
2013-01-20 19:36:00,54.1,27.8,30.12,South,180,5.4,5.4,36,0.00,,CLR,0.00,VWS V14.01,2013-01-21 02:36:00,
2013-01-20 19:40:00,54.5,28.1,30.12,South,180,2.5,4.5,36,0.00,,CLR,0.00,VWS V14.01,2013-01-21 02:40:00,
2013-01-20 19:42:00,54.9,28.4,30.12,SSW,202,2.7,3.8,36,0.00,,CLR,0.00,VWS V14.01,2013-01-21 02:42:00,
2013-01-20 19:46:00,55.0,28.6,30.12,SSW,202,3.1,5.4,36,0.00,,CLR,0.00,VWS V14.01,2013-01-21 02:46:00,
2013-01-20 19:48:00,55.0,28.6,30.12,SSW,202,3.6,3.8,36,0.00,,CLR,0.00,VWS V14.01,2013-01-21 02:48:00,
2013-01-20 19:53:00,55.0,28.6,30.12,SSW,202,5.4,5.4,36,0.00,,CLR,0.00,VWS V14.01,2013-01-21 02:53:00,
2013-01-20 19:56:00,55.0,28.6,30.09,South,180,4.3,6.0,36,0.00,,CLR,0.00,VWS V14.01,2013-01-21 02:56:00,
2013-01-20 20:02:00,55.0,28.6,30.09,SSE,158,2.7,6.3,36,0.00,,CLR,0.00,VWS V14.01,2013-01-21 03:02:00,
2013-01-20 20:06:00,55.0,28.6,30.09,SSW,202,4.3,5.8,36,0.00,,CLR,0.00,VWS V14.01,2013-01-21 03:06:00,
2013-01-20 20:08:00,55.2,28.8,30.09,South,180,3.8,5.4,36,0.00,,CLR,0.00,VWS V14.01,2013-01-21 03:08:00,
2013-01-20 20:12:00,55.2,28.8,30.12,South,180,6.5,6.5,36,0.00,,CLR,0.00,VWS V14.01,2013-01-21 03:12:00,
2013-01-20 20:16:00,55.2,28.8,30.12,SSE,158,4.3,6.5,36,0.00,,CLR,0.00,VWS V14.01,2013-01-21 03:16:00,
2013-01-20 20:24:00,55.6,29.1,30.12,South,180,2.9,4.9,36,0.00,,CLR,0.00,VWS V14.01,2013-01-21 03:24:00,
2013-01-20 20:28:00,55.4,28.2,30.12,South,180,2.9,2.9,35,0.00,,CLR,0.00,VWS V14.01,2013-01-21 03:28:00,
2013-01-20 20:30:00,55.0,28.6,30.12,SSW,202,2.0,2.9,36,0.00,,CLR,0.00,VWS V14.01,2013-01-21 03:30:00,
2013-01-20 20:32:00,54.9,28.4,30.12,SSW,202,2.9,2.9,36,0.00,,CLR,0.00,VWS V14.01,2013-01-21 03:32:00,
2013-01-20 20:38:00,54.3,28.0,30.12,SSW,202,2.5,2.9,36,0.00,,CLR,0.00,VWS V14.01,2013-01-21 03:38:00,
2013-01-20 20:40:00,54.1,27.8,30.12,SSW,202,2.0,2.5,36,0.00,,CLR,0.00,VWS V14.01,2013-01-21 03:40:00,
2013-01-20 20:44:00,54.0,27.6,30.12,SW,225,2.7,3.1,36,0.00,,CLR,0.00,VWS V14.01,2013-01-21 03:44:00,
2013-01-20 20:46:00,54.1,27.8,30.12,WSW,248,2.5,2.9,36,0.00,,CLR,0.00,VWS V14.01,2013-01-21 03:46:00,
2013-01-20 20:50:00,53.6,27.3,30.12,WNW,292,2.7,3.4,36,0.00,,CLR,0.00,VWS V14.01,2013-01-21 03:50:00,
2013-01-20 20:58:00,51.8,26.4,30.12,WSW,248,2.5,3.1,37,0.00,,CLR,0.00,VWS V14.01,2013-01-21 03:58:00,
2013-01-20 21:02:00,51.3,25.9,30.12,WSW,248,3.1,3.1,37,0.00,,CLR,0.00,VWS V14.01,2013-01-21 04:02:00,
2013-01-20 21:04:00,51.1,25.7,30.12,WSW,248,2.9,4.9,37,0.00,,CLR,0.00,VWS V14.01,2013-01-21 04:04:00,
2013-01-20 21:08:00,50.5,25.9,30.12,WSW,248,3.8,3.8,38,0.00,,CLR,0.00,VWS V14.01,2013-01-21 04:08:00,
2013-01-20 21:10:00,50.5,25.9,30.12,WSW,248,3.4,3.8,38,0.00,,CLR,0.00,VWS V14.01,2013-01-21 04:10:00,
2013-01-20 21:16:00,50.4,25.7,30.12,SSW,202,2.5,3.4,38,0.00,,CLR,0.00,VWS V14.01,2013-01-21 04:16:00,
2013-01-20 21:18:00,50.4,25.7,30.12,SW,225,2.5,2.5,38,0.00,,CLR,0.00,VWS V14.01,2013-01-21 04:18:00,
2013-01-20 21:22:00,49.8,25.2,30.12,SSW,202,3.6,3.6,38,0.00,,CLR,0.00,VWS V14.01,2013-01-21 04:22:00,
2013-01-20 21:26:00,49.5,25.5,30.12,SSW,202,2.5,2.5,39,0.00,,CLR,0.00,VWS V14.01,2013-01-21 04:26:00,
2013-01-20 21:28:00,49.5,25.5,30.12,SSW,202,1.6,3.4,39,0.00,,CLR,0.00,VWS V14.01,2013-01-21 04:28:00,
2013-01-20 21:30:00,49.5,25.5,30.12,SSW,202,2.0,2.2,39,0.00,,CLR,0.00,VWS V14.01,2013-01-21 04:30:00,
2013-01-20 21:32:00,49.1,25.2,30.12,SW,225,2.7,3.6,39,0.00,,CLR,0.00,VWS V14.01,2013-01-21 04:32:00,
2013-01-20 21:37:00,48.7,25.5,30.12,SW,225,2.9,2.9,40,0.00,,CLR,0.00,VWS V14.01,2013-01-21 04:37:00,
2013-01-20 21:38:00,48.7,25.5,30.12,SSW,202,1.6,2.9,40,0.00,,CLR,0.00,VWS V14.01,2013-01-21 04:38:00,
2013-01-20 21:45:00,48.0,25.5,30.15,SSW,202,2.5,2.7,41,0.00,,CLR,0.00,VWS V14.01,2013-01-21 04:45:00,
2013-01-20 21:48:00,47.8,25.3,30.15,SSW,202,2.9,2.9,41,0.00,,CLR,0.00,VWS V14.01,2013-01-21 04:48:00,
2013-01-20 21:52:00,47.5,25.5,30.15,SSW,202,2.7,3.4,42,0.00,,CLR,0.00,VWS V14.01,2013-01-21 04:52:00,
2013-01-20 21:58:00,47.8,26.4,30.12,SSW,202,2.7,2.7,43,0.00,,CLR,0.00,VWS V14.01,2013-01-21 04:58:00,
2013-01-20 22:02:00,48.2,26.2,30.12,SSW,202,2.7,2.7,42,0.00,,CLR,0.00,VWS V14.01,2013-01-21 05:02:00,
2013-01-20 22:08:00,48.4,26.9,30.12,SSW,202,2.7,2.7,43,0.00,,CLR,0.00,VWS V14.01,2013-01-21 05:08:00,
2013-01-20 22:12:00,48.2,26.8,30.12,SSW,202,2.7,2.7,43,0.00,,CLR,0.00,VWS V14.01,2013-01-21 05:12:00,
2013-01-20 22:14:00,48.2,26.8,30.12,SSW,202,2.7,2.7,43,0.00,,CLR,0.00,VWS V14.01,2013-01-21 05:14:00,
2013-01-20 22:22:00,48.4,26.9,30.12,SSW,202,2.7,2.7,43,0.00,,CLR,10.21,VWS V14.01,2013-01-21 05:22:00,
2013-01-20 22:28:00,48.4,26.9,30.12,SSW,202,2.7,2.7,43,0.00,,CLR,10.21,VWS V14.01,2013-01-21 05:28:00,
2013-01-20 22:32:00,48.4,26.9,30.12,SSW,202,2.7,2.7,43,0.00,,CLR,10.21,VWS V14.01,2013-01-21 05:32:00,
2013-01-20 22:34:00,46.0,25.9,30.12,SSW,202,2.7,2.7,45,0.00,,CLR,10.21,VWS V14.01,2013-01-21 05:34:00,
2013-01-20 22:38:00,46.0,25.9,30.12,SSW,202,2.7,2.7,45,0.00,,CLR,10.21,VWS V14.01,2013-01-21 05:38:00,
2013-01-20 22:42:00,46.0,25.9,30.12,SSW,202,2.7,2.7,45,0.00,,CLR,10.21,VWS V14.01,2013-01-21 05:42:00,
2013-01-20 22:48:00,44.8,26.3,30.12,SSW,202,2.7,2.7,48,0.00,,CLR,10.21,VWS V14.01,2013-01-21 05:48:00,
2013-01-20 22:50:00,44.6,26.1,30.12,SSW,202,2.7,2.7,48,0.00,,CLR,10.21,VWS V14.01,2013-01-21 05:50:00,
2013-01-20 22:54:00,44.4,26.0,30.12,SSW,202,2.7,2.7,48,0.00,,CLR,10.21,VWS V14.01,2013-01-21 05:54:00,
2013-01-20 22:58:00,44.4,26.0,30.15,SSW,202,2.7,2.7,48,0.00,,CLR,10.21,VWS V14.01,2013-01-21 05:58:00,
2013-01-20 23:00:00,44.4,26.0,30.15,SSW,202,2.7,2.7,48,0.00,,CLR,10.21,VWS V14.01,2013-01-21 06:00:00,
2013-01-20 23:04:00,44.6,26.6,30.15,SSW,202,2.7,2.7,49,0.00,,CLR,10.21,VWS V14.01,2013-01-21 06:04:00,
2013-01-20 23:06:00,44.6,26.6,30.15,SSW,202,2.7,2.7,49,0.00,,CLR,10.21,VWS V14.01,2013-01-21 06:06:00,
2013-01-20 23:10:00,44.1,26.6,30.12,SSW,202,2.7,2.7,50,0.00,,CLR,10.21,VWS V14.01,2013-01-21 06:10:00,
2013-01-20 23:19:00,43.7,26.8,30.12,SSW,202,3.4,3.4,51,0.00,,CLR,10.21,VWS V14.01,2013-01-21 06:19:00,
2013-01-20 23:20:00,43.9,26.9,30.12,SSW,202,3.1,3.4,51,0.00,,CLR,10.21,VWS V14.01,2013-01-21 06:20:00,
2013-01-20 23:22:00,44.2,27.3,30.12,SSW,202,3.4,4.0,51,0.00,,CLR,10.21,VWS V14.01,2013-01-21 06:22:00,
2013-01-20 23:28:00,44.8,27.8,30.12,SSW,202,3.6,4.0,51,0.00,,CLR,10.21,VWS V14.01,2013-01-21 06:28:00,
2013-01-20 23:32:00,45.7,28.6,30.12,SSW,202,4.3,4.3,51,0.00,,CLR,10.21,VWS V14.01,2013-01-21 06:32:00,
2013-01-20 23:34:00,46.2,28.6,30.12,SSW,202,3.6,4.3,50,0.00,,CLR,10.21,VWS V14.01,2013-01-21 06:34:00,
2013-01-20 23:41:00,46.8,28.6,30.12,SSW,202,2.7,3.8,49,0.00,,CLR,10.21,VWS V14.01,2013-01-21 06:41:00,
2013-01-20 23:44:00,46.4,28.3,30.12,SW,225,3.1,3.4,49,0.00,,CLR,10.21,VWS V14.01,2013-01-21 06:44:00,
2013-01-20 23:48:00,46.6,28.5,30.12,SSW,202,4.0,4.0,49,0.00,,CLR,10.21,VWS V14.01,2013-01-21 06:48:00,
2013-01-20 23:50:00,46.6,28.5,30.12,SSW,202,3.1,4.0,49,0.00,,CLR,10.21,VWS V14.01,2013-01-21 06:50:00,
2013-01-20 23:52:00,46.8,28.6,30.12,SSW,202,3.8,4.0,49,0.00,,CLR,10.21,VWS V14.01,2013-01-21 06:52:00,
2013-01-20 23:57:00,46.8,28.6,30.12,SSW,202,1.6,3.6,49,0.00,,CLR,0.00,VWS V14.01,2013-01-21 06:57:00,
2013-01-20 23:58:00,46.8,28.6,30.12,SSW,202,2.7,3.1,49,0.00,,CLR,0.00,VWS V14.01,2013-01-21 06:58:00,